createdAt,value
2022-09-04T00:01:59.530Z,27.17
2022-09-04T00:04:55.531Z,27.14
2022-09-04T00:07:54.312Z,27.16
2022-09-04T00:10:48.760Z,27.16
2022-09-04T00:13:44.065Z,27.14
2022-09-04T00:16:37.181Z,27.13
2022-09-04T00:19:29.665Z,27.13
2022-09-04T00:22:28.047Z,27.16
2022-09-04T00:25:21.482Z,27.12
2022-09-04T00:28:26.930Z,27.13
2022-09-04T00:31:25.858Z,27.12
2022-09-04T00:34:23.447Z,27.09
2022-09-04T00:37:13.896Z,27.11
2022-09-04T00:40:05.600Z,27.11
2022-09-04T00:43:20.265Z,27.11
2022-09-04T00:46:25.338Z,27.13
2022-09-04T00:49:30.089Z,27.13
2022-09-04T00:52:36.777Z,27.16
2022-09-04T00:55:40.466Z,27.16
2022-09-04T00:58:35.815Z,27.13
2022-09-04T01:01:27.938Z,27.13
2022-09-04T01:04:25.267Z,27.17
2022-09-04T01:07:26.779Z,27.18
2022-09-04T01:10:29.722Z,27.15
2022-09-04T01:13:25.431Z,27.13
2022-09-04T01:16:19.107Z,27.14
2022-09-04T01:19:22.741Z,27.11
2022-09-04T01:22:25.675Z,27.11
2022-09-04T01:25:23.209Z,27.14
2022-09-04T01:28:18.656Z,27.13
2022-09-04T01:31:18.448Z,27.12
2022-09-04T01:34:19.242Z,27.11
2022-09-04T01:37:18.423Z,27.12
2022-09-04T01:40:35.623Z,27.11
2022-09-04T01:43:26.429Z,27.12
2022-09-04T01:46:25.998Z,27.12
2022-09-04T01:49:21.807Z,27.12
2022-09-04T01:52:27.940Z,27.17
2022-09-04T01:55:21.575Z,27.17
2022-09-04T01:58:18.369Z,27.16
2022-09-04T02:01:15.797Z,27.13
2022-09-04T02:04:18.290Z,27.12
2022-09-04T02:07:15.396Z,27.13
2022-09-04T02:10:12.861Z,27.13
2022-09-04T02:13:12.268Z,27.11
2022-09-04T02:16:11.326Z,27.16
2022-09-04T02:19:04.991Z,27.15
2022-09-04T02:22:01.031Z,27.14
2022-09-04T02:24:53.158Z,27.16
2022-09-04T02:27:50.506Z,27.14
2022-09-04T02:30:43.699Z,27.14
2022-09-04T02:33:40.329Z,27.17
2022-09-04T02:36:33.846Z,27.14
2022-09-04T02:39:31.138Z,27.19
2022-09-04T02:42:25.730Z,27.17
2022-09-04T02:45:22.685Z,27.16
2022-09-04T02:48:16.098Z,27.17
2022-09-04T02:51:21.127Z,27.17
2022-09-04T02:54:14.157Z,27.16
2022-09-04T02:57:09.253Z,27.17
2022-09-04T03:00:07.095Z,27.17
2022-09-04T03:03:02.469Z,27.16
2022-09-04T03:05:55.239Z,27.17
2022-09-04T03:08:49.911Z,27.18
2022-09-04T03:11:46.858Z,27.16
2022-09-04T03:14:39.911Z,27.16
2022-09-04T03:17:34.870Z,27.15
2022-09-04T03:20:25.336Z,27.17
2022-09-04T03:23:19.103Z,27.18
2022-09-04T03:26:18.045Z,27.17
2022-09-04T03:29:12.078Z,27.15
2022-09-04T03:32:15.964Z,27.16
2022-09-04T03:35:09.381Z,27.14
2022-09-04T03:38:10.559Z,27.17
2022-09-04T03:41:04.366Z,27.17
2022-09-04T03:44:01.927Z,27.16
2022-09-04T03:46:58.885Z,27.13
2022-09-04T03:49:55.218Z,27.15
2022-09-04T03:52:50.109Z,27.13
2022-09-04T03:56:16.331Z,27.17
2022-09-04T03:59:08.318Z,27.16
2022-09-04T04:02:02.503Z,27.13
2022-09-04T04:05:15.477Z,27.12
2022-09-04T04:08:20.220Z,27.18
2022-09-04T04:11:24.240Z,27.13
2022-09-04T04:14:30.907Z,27.12
2022-09-04T04:17:31.457Z,27.11
2022-09-04T04:20:27.581Z,27.10
2022-09-04T04:23:39.562Z,27.11
2022-09-04T04:26:40.541Z,27.10
2022-09-04T04:29:51.553Z,27.08
2022-09-04T04:33:13.976Z,27.06
2022-09-04T04:36:10.133Z,27.03
2022-09-04T04:39:15.813Z,27.06
2022-09-04T04:42:12.983Z,27.06
2022-09-04T04:45:40.863Z,27.05
2022-09-04T04:49:08.051Z,27.05
2022-09-04T04:52:25.676Z,27.03
2022-09-04T04:55:21.387Z,27.01
2022-09-04T04:58:26.115Z,27.05
2022-09-04T05:01:25.596Z,27.01
2022-09-04T05:04:23.234Z,27.02
2022-09-04T05:07:20.483Z,27.00
2022-09-04T05:10:17.835Z,27.00
2022-09-04T05:13:13.467Z,26.99
2022-09-04T05:16:09.265Z,26.96
2022-09-04T05:19:03.085Z,26.95
2022-09-04T05:21:55.397Z,26.96
2022-09-04T05:24:51.906Z,26.95
2022-09-04T05:27:50.449Z,26.94
2022-09-04T05:30:45.535Z,26.95
2022-09-04T05:33:40.263Z,26.97
2022-09-04T05:36:36.632Z,26.96
2022-09-04T05:39:30.673Z,26.97
2022-09-04T05:42:40.667Z,26.98
2022-09-04T05:45:39.027Z,26.97
2022-09-04T05:48:31.772Z,26.96
2022-09-04T05:51:46.999Z,26.98
2022-09-04T05:54:48.329Z,26.97
2022-09-04T05:57:46.216Z,26.98
2022-09-04T06:00:42.552Z,26.98
2022-09-04T06:03:48.785Z,26.97
2022-09-04T06:06:41.941Z,26.99
2022-09-04T06:09:41.701Z,26.99
2022-09-04T06:12:48.428Z,27.00
2022-09-04T06:15:46.712Z,27.01
2022-09-04T06:18:51.145Z,27.02
2022-09-04T06:22:15.801Z,27.05
2022-09-04T06:25:22.394Z,27.04
2022-09-04T06:28:25.453Z,27.06
2022-09-04T06:31:34.030Z,27.04
2022-09-04T06:34:33.582Z,27.03
2022-09-04T06:37:31.593Z,27.05
2022-09-04T06:40:31.909Z,27.07
2022-09-04T06:43:29.695Z,27.09
2022-09-04T06:46:26.857Z,27.11
2022-09-04T06:49:19.137Z,27.12
2022-09-04T06:52:16.193Z,27.14
2022-09-04T06:55:11.747Z,27.19
2022-09-04T06:58:15.674Z,27.19
2022-09-04T07:01:08.886Z,27.21
2022-09-04T07:04:07.968Z,27.18
2022-09-04T07:07:06.930Z,27.19
2022-09-04T07:10:01.485Z,27.18
2022-09-04T07:13:36.962Z,27.19
2022-09-04T07:16:41.212Z,27.18
2022-09-04T07:19:44.194Z,27.21
2022-09-04T07:22:47.955Z,27.22
2022-09-04T07:25:42.655Z,27.23
2022-09-04T07:28:40.324Z,27.26
2022-09-04T07:31:33.148Z,27.26
2022-09-04T07:34:25.829Z,27.27
2022-09-04T07:37:25.034Z,27.26
2022-09-04T07:40:16.829Z,27.26
2022-09-04T07:43:09.963Z,27.28
2022-09-04T07:46:05.384Z,27.31
2022-09-04T07:48:56.930Z,27.30
2022-09-04T07:51:49.993Z,27.30
2022-09-04T07:54:53.378Z,27.30
2022-09-04T07:58:24.500Z,27.34
2022-09-04T08:01:38.192Z,27.32
2022-09-04T08:04:56.613Z,27.35
2022-09-04T08:08:07.204Z,27.37
2022-09-04T08:11:09.062Z,27.37
2022-09-04T08:14:22.201Z,27.35
2022-09-04T08:17:37.180Z,27.36
2022-09-04T08:20:38.557Z,27.36
2022-09-04T08:23:46.294Z,27.41
2022-09-04T08:26:40.403Z,27.39
2022-09-04T08:29:40.608Z,27.43
2022-09-04T08:32:51.931Z,27.43
2022-09-04T08:35:51.802Z,27.42
2022-09-04T08:38:57.156Z,27.44
2022-09-04T08:42:17.542Z,27.46
2022-09-04T08:45:30.321Z,27.46
2022-09-04T08:48:59.239Z,27.47
2022-09-04T08:52:24.018Z,27.47
2022-09-04T08:55:57.366Z,27.49
2022-09-04T08:59:12.264Z,27.54
2022-09-04T09:02:27.314Z,27.56
2022-09-04T09:05:30.547Z,27.58
2022-09-04T09:09:01.672Z,27.55
2022-09-04T09:12:24.017Z,27.56
2022-09-04T09:15:42.193Z,27.61
2022-09-04T09:18:40.485Z,27.63
2022-09-04T09:21:44.252Z,27.63
2022-09-04T09:24:55.014Z,27.62
2022-09-04T09:28:26.622Z,27.67
2022-09-04T09:31:49.434Z,27.72
2022-09-04T09:35:23.123Z,27.76
2022-09-04T09:38:34.837Z,27.74
2022-09-04T09:41:59.551Z,27.74
2022-09-04T09:45:24.267Z,27.76
2022-09-04T09:48:36.638Z,27.73
2022-09-04T09:52:02.629Z,27.75
2022-09-04T09:55:20.024Z,27.80
2022-09-04T09:58:47.425Z,27.88
2022-09-04T10:01:50.657Z,27.89
2022-09-04T10:05:12.586Z,27.93
2022-09-04T10:08:35.572Z,27.93
2022-09-04T10:11:45.892Z,27.97
2022-09-04T10:15:16.567Z,27.97
2022-09-04T10:18:32.928Z,27.98
2022-09-04T10:21:57.165Z,28.00
2022-09-04T10:25:31.103Z,28.04
2022-09-04T10:28:45.323Z,28.05
2022-09-04T10:31:48.239Z,28.06
2022-09-04T10:34:54.386Z,28.10
2022-09-04T10:37:58.291Z,28.10
2022-09-04T10:40:56.664Z,28.08
2022-09-04T10:44:08.739Z,28.08
2022-09-04T10:47:04.532Z,28.10
2022-09-04T10:50:18.790Z,28.12
2022-09-04T10:53:21.178Z,28.12
2022-09-04T10:56:19.671Z,28.14
2022-09-04T10:59:25.081Z,28.19
2022-09-04T11:02:33.455Z,28.25
2022-09-04T11:05:42.261Z,28.27
2022-09-04T11:08:44.802Z,28.27
2022-09-04T11:11:56.718Z,28.22
2022-09-04T11:14:58.572Z,28.21
2022-09-04T11:18:13.258Z,28.22
2022-09-04T11:21:22.796Z,28.25
2022-09-04T11:24:35.268Z,28.26
2022-09-04T11:27:39.983Z,28.25
2022-09-04T11:30:39.981Z,28.26
2022-09-04T11:34:19.115Z,28.27
2022-09-04T11:37:49.205Z,28.21
2022-09-04T11:41:16.852Z,28.21
2022-09-04T11:44:46.722Z,28.20
2022-09-04T11:48:02.552Z,28.17
2022-09-04T11:51:05.610Z,28.16
2022-09-04T11:54:24.572Z,28.15
2022-09-04T11:57:18.365Z,28.13
2022-09-04T12:00:11.476Z,28.11
2022-09-04T12:03:27.278Z,28.10
2022-09-04T12:06:29.328Z,28.11
2022-09-04T12:09:47.818Z,28.14
2022-09-04T12:13:07.627Z,28.10
2022-09-04T12:16:47.237Z,28.11
2022-09-04T12:19:50.634Z,28.09
2022-09-04T12:23:10.104Z,28.07
2022-09-04T12:26:23.112Z,28.08
2022-09-04T12:29:51.516Z,28.13
2022-09-04T12:33:12.177Z,28.13
2022-09-04T12:36:38.854Z,28.11
2022-09-04T12:39:54.116Z,28.12
2022-09-04T12:42:47.626Z,28.16
2022-09-04T12:45:42.065Z,28.18
2022-09-04T12:48:37.562Z,28.18
2022-09-04T12:51:26.577Z,28.18
2022-09-04T12:54:23.195Z,28.21
2022-09-04T12:57:22.507Z,28.20
2022-09-04T13:00:12.420Z,28.23
2022-09-04T13:03:10.459Z,28.23
2022-09-04T13:06:17.842Z,28.27
2022-09-04T13:09:16.440Z,28.25
2022-09-04T13:12:17.834Z,28.26
2022-09-04T13:15:21.848Z,28.26
2022-09-04T13:18:21.293Z,28.30
2022-09-04T13:21:16.505Z,28.32
2022-09-04T13:24:17.250Z,28.34
2022-09-04T13:27:17.419Z,28.37
2022-09-04T13:30:08.501Z,28.39
2022-09-04T13:33:18.534Z,28.44
2022-09-04T13:36:19.238Z,28.50
2022-09-04T13:39:27.877Z,28.54
2022-09-04T13:42:39.619Z,28.51
2022-09-04T13:45:34.473Z,28.52
2022-09-04T13:48:34.561Z,28.54
2022-09-04T13:51:29.784Z,28.56
2022-09-04T13:54:19.982Z,28.56
2022-09-04T13:57:12.145Z,28.54
2022-09-04T14:00:04.252Z,28.55
2022-09-04T14:02:55.924Z,28.58
2022-09-04T14:05:44.540Z,28.61
2022-09-04T14:08:34.728Z,28.64
2022-09-04T14:11:42.473Z,28.65
2022-09-04T14:14:50.237Z,28.68
2022-09-04T14:17:49.525Z,28.71
2022-09-04T14:20:41.432Z,28.71
2022-09-04T14:23:40.692Z,28.73
2022-09-04T14:26:36.265Z,28.73
2022-09-04T14:29:32.478Z,28.74
2022-09-04T14:32:24.512Z,28.77
2022-09-04T14:35:20.967Z,28.81
2022-09-04T14:38:36.388Z,28.83
2022-09-04T14:41:36.135Z,28.83
2022-09-04T14:44:35.730Z,28.87
2022-09-04T14:47:32.888Z,28.88
2022-09-04T14:50:28.494Z,28.89
2022-09-04T14:53:23.192Z,28.89
2022-09-04T14:56:25.223Z,28.95
2022-09-04T14:59:19.756Z,28.95
2022-09-04T15:02:25.545Z,28.95
2022-09-04T15:05:23.064Z,28.92
2022-09-04T15:08:13.029Z,28.92
2022-09-04T15:11:04.264Z,28.97
2022-09-04T15:13:53.852Z,28.95
2022-09-04T15:16:49.308Z,28.94
2022-09-04T15:19:47.465Z,28.95
2022-09-04T15:22:41.876Z,29.00
2022-09-04T15:25:58.314Z,28.99
2022-09-04T15:28:50.293Z,28.93
2022-09-04T15:31:45.523Z,28.91
2022-09-04T15:34:34.714Z,28.88
2022-09-04T15:37:28.257Z,28.91
2022-09-04T15:40:24.774Z,28.89
2022-09-04T15:43:19.097Z,28.87
2022-09-04T15:46:10.834Z,28.85
2022-09-04T15:49:12.799Z,28.82
2022-09-04T15:52:14.130Z,28.81
2022-09-04T15:55:11.876Z,28.81
2022-09-04T15:58:05.717Z,28.84
2022-09-04T16:01:09.716Z,28.80
2022-09-04T16:04:07.327Z,28.78
2022-09-04T16:06:59.097Z,28.77
2022-09-04T16:09:53.101Z,28.72
2022-09-04T16:12:50.804Z,28.72
2022-09-04T16:15:42.672Z,28.71
2022-09-04T16:18:44.809Z,28.72
2022-09-04T16:21:41.285Z,28.70
2022-09-04T16:24:32.041Z,28.68
2022-09-04T16:27:24.365Z,28.63
2022-09-04T16:30:27.288Z,28.61
2022-09-04T16:33:28.203Z,28.61
2022-09-04T16:36:20.286Z,28.57
2022-09-04T16:39:14.269Z,28.52
2022-09-04T16:42:13.797Z,28.52
2022-09-04T16:45:08.472Z,28.49
2022-09-04T16:48:00.433Z,28.50
2022-09-04T16:51:09.881Z,28.47
2022-09-04T16:54:19.158Z,28.48
2022-09-04T16:57:13.994Z,28.48
2022-09-04T17:00:08.571Z,28.47
2022-09-04T17:03:00.350Z,28.45
2022-09-04T17:05:51.379Z,28.45
2022-09-04T17:08:43.785Z,28.45
2022-09-04T17:11:39.775Z,28.40
2022-09-04T17:14:32.890Z,28.36
2022-09-04T17:17:31.457Z,28.35
2022-09-04T17:20:29.211Z,28.35
2022-09-04T17:28:59.007Z,28.36
2022-09-04T17:29:11.749Z,28.34
2022-09-04T17:30:03.622Z,28.31
2022-09-04T17:38:26.924Z,28.35
2022-09-04T17:40:46.674Z,28.30
2022-09-04T17:40:55.713Z,28.30
2022-09-04T17:42:37.290Z,28.32
2022-09-04T17:45:34.524Z,28.31
2022-09-04T17:48:25.300Z,28.29
2022-09-04T17:51:18.558Z,28.27
2022-09-04T17:54:13.435Z,28.25
2022-09-04T17:57:04.666Z,28.25
2022-09-04T18:00:02.479Z,28.23
2022-09-04T18:02:56.490Z,28.21
2022-09-04T18:05:53.170Z,28.22
2022-09-04T18:08:51.413Z,28.18
2022-09-04T18:12:00.622Z,28.20
2022-09-04T18:15:16.492Z,28.19
2022-09-04T18:18:21.360Z,28.21
2022-09-04T18:21:18.443Z,28.20
2022-09-04T18:24:09.054Z,28.19
2022-09-04T18:27:02.838Z,28.19
2022-09-04T18:36:33.669Z,28.18
2022-09-04T18:37:25.135Z,28.17
2022-09-04T18:37:26.391Z,28.18
2022-09-04T18:39:44.611Z,28.16
2022-09-04T18:50:22.853Z,28.15
2022-09-04T18:50:38.513Z,28.12
2022-09-04T18:50:45.515Z,28.12
2022-09-04T18:52:16.367Z,28.12
2022-09-04T18:55:14.367Z,28.10
2022-09-04T18:58:28.271Z,28.10
2022-09-04T19:01:27.417Z,28.10
2022-09-04T19:04:47.655Z,28.09
2022-09-04T19:07:39.590Z,28.10
2022-09-04T19:10:29.827Z,28.10
2022-09-04T19:13:25.215Z,28.11
2022-09-04T19:16:18.641Z,28.06
2022-09-04T19:19:17.227Z,28.10
2022-09-04T19:22:12.352Z,28.11
2022-09-04T19:25:04.866Z,28.10
2022-09-04T19:27:56.966Z,28.09
2022-09-04T19:30:52.101Z,28.05
2022-09-04T19:33:44.920Z,28.04
2022-09-04T19:36:40.301Z,28.04
2022-09-04T19:45:55.414Z,28.06
2022-09-04T19:46:06.480Z,28.05
2022-09-04T19:46:25.997Z,28.02
2022-09-04T19:51:54.101Z,28.03
2022-09-04T19:53:35.615Z,28.04
2022-09-04T19:55:45.175Z,28.01
2022-09-04T19:58:44.000Z,27.98
2022-09-04T20:01:42.555Z,27.98
2022-09-04T20:04:37.224Z,27.98
2022-09-04T20:07:41.483Z,27.98
2022-09-04T20:10:37.300Z,27.99
2022-09-04T20:13:28.023Z,27.97
2022-09-04T20:16:21.690Z,27.98
2022-09-04T20:19:27.959Z,28.02
2022-09-04T20:22:33.923Z,27.98
2022-09-04T20:25:41.411Z,27.97
2022-09-04T20:28:37.787Z,27.99
2022-09-04T20:31:54.478Z,28.01
2022-09-04T20:34:49.496Z,28.00
2022-09-04T20:37:46.114Z,28.01
2022-09-04T20:40:38.797Z,27.99
2022-09-04T20:43:32.858Z,27.96
2022-09-04T20:52:43.257Z,27.98
2022-09-04T20:52:55.064Z,27.94
2022-09-04T20:53:10.574Z,27.93
2022-09-04T20:56:10.733Z,27.93
2022-09-04T21:03:09.574Z,27.92
2022-09-04T21:03:18.530Z,27.92
2022-09-04T21:06:07.631Z,27.90
2022-09-04T21:09:06.357Z,27.93
2022-09-04T21:11:56.873Z,27.94
2022-09-04T21:14:47.927Z,27.90
2022-09-04T21:18:12.131Z,27.87
2022-09-04T21:21:22.210Z,27.87
2022-09-04T21:24:33.761Z,27.86
2022-09-04T21:27:55.525Z,27.85
2022-09-04T21:31:08.910Z,27.85
2022-09-04T21:34:12.445Z,27.83
2022-09-04T21:37:06.817Z,27.83
2022-09-04T21:40:30.978Z,27.84
2022-09-04T21:43:58.030Z,27.83
2022-09-04T21:46:57.992Z,27.82
2022-09-04T21:50:25.326Z,27.85
2022-09-04T21:53:41.021Z,27.84
2022-09-04T22:02:26.785Z,27.82
2022-09-04T22:02:47.934Z,27.80
2022-09-04T22:03:35.916Z,27.78
2022-09-04T22:07:15.095Z,27.78
2022-09-04T22:13:30.627Z,27.75
2022-09-04T22:13:34.731Z,27.76
2022-09-04T22:16:58.300Z,27.75
2022-09-04T22:20:03.931Z,27.77
2022-09-04T22:23:20.113Z,27.78
2022-09-04T22:26:28.932Z,27.76
2022-09-04T22:29:39.894Z,27.79
2022-09-04T22:32:58.568Z,27.78
2022-09-04T22:36:04.150Z,27.78
2022-09-04T22:39:20.968Z,27.78
2022-09-04T22:42:50.818Z,27.74
2022-09-04T22:46:09.362Z,27.74
2022-09-04T22:49:25.631Z,27.74
2022-09-04T22:52:53.878Z,27.73
2022-09-04T22:56:23.117Z,27.76
2022-09-04T22:59:26.854Z,27.72
2022-09-04T23:07:54.765Z,27.74
2022-09-04T23:13:44.859Z,27.71
2022-09-04T23:14:05.141Z,27.70
2022-09-04T23:17:11.642Z,27.70
2022-09-04T23:24:37.785Z,27.71
2022-09-04T23:26:58.403Z,27.70
2022-09-04T23:27:36.556Z,27.69
2022-09-04T23:30:27.684Z,27.73
2022-09-04T23:33:44.312Z,27.72
2022-09-04T23:37:04.203Z,27.71
2022-09-04T23:40:28.739Z,27.73
2022-09-04T23:43:52.848Z,27.72
2022-09-04T23:46:56.492Z,27.72
2022-09-04T23:50:00.875Z,27.68
2022-09-04T23:53:00.036Z,27.66
2022-09-04T23:55:58.578Z,27.69
2022-09-04T23:59:18.964Z,27.68
